sensor_id;sensor_type;location;lat;lon;timestamp;temperature;humidity
15656;DHT22;7928;43.614;1.456;2024-03-23T00:53:34;16.40;99.90
15656;DHT22;7928;43.614;1.456;2024-03-23T00:56:02;16.40;99.90
15656;DHT22;7928;43.614;1.456;2024-03-23T00:58:29;16.40;99.90
15656;DHT22;7928;43.614;1.456;2024-03-23T01:00:56;16.40;99.90
15656;DHT22;7928;43.614;1.456;2024-03-23T01:03:22;16.30;99.90
15656;DHT22;7928;43.614;1.456;2024-03-23T01:05:49;16.40;99.90
15656;DHT22;7928;43.614;1.456;2024-03-23T01:08:15;16.40;99.90
15656;DHT22;7928;43.614;1.456;2024-03-23T01:10:42;16.30;99.90
15656;DHT22;7928;43.614;1.456;2024-03-23T01:13:09;16.20;99.90
15656;DHT22;7928;43.614;1.456;2024-03-23T01:15:36;16.20;99.90
15656;DHT22;7928;43.614;1.456;2024-03-23T01:18:03;16.20;99.90
15656;DHT22;7928;43.614;1.456;2024-03-23T01:20:30;16.20;99.90
15656;DHT22;7928;43.614;1.456;2024-03-23T01:22:56;16.10;99.90
15656;DHT22;7928;43.614;1.456;2024-03-23T01:25:23;16.10;99.90
15656;DHT22;7928;43.614;1.456;2024-03-23T01:27:49;16.20;99.90
15656;DHT22;7928;43.614;1.456;2024-03-23T01:30:17;16.10;99.90
15656;DHT22;7928;43.614;1.456;2024-03-23T01:32:43;16.10;99.90
15656;DHT22;7928;43.614;1.456;2024-03-23T01:35:10;16.10;99.90
15656;DHT22;7928;43.614;1.456;2024-03-23T01:37:36;16.20;99.90
15656;DHT22;7928;43.614;1.456;2024-03-23T01:40:04;16.10;99.90
15656;DHT22;7928;43.614;1.456;2024-03-23T01:42:30;16.20;99.90
15656;DHT22;7928;43.614;1.456;2024-03-23T01:44:58;16.20;99.90
15656;DHT22;7928;43.614;1.456;2024-03-23T01:47:26;16.10;99.90
15656;DHT22;7928;43.614;1.456;2024-03-23T01:49:53;16.00;99.90
15656;DHT22;7928;43.614;1.456;2024-03-23T01:52:20;16.10;99.90
15656;DHT22;7928;43.614;1.456;2024-03-23T01:54:47;16.00;99.90
15656;DHT22;7928;43.614;1.456;2024-03-23T01:57:13;15.90;99.90
15656;DHT22;7928;43.614;1.456;2024-03-23T01:59:40;15.90;99.90
15656;DHT22;7928;43.614;1.456;2024-03-23T02:02:06;16.00;99.90
15656;DHT22;7928;43.614;1.456;2024-03-23T02:04:35;16.00;99.90
15656;DHT22;7928;43.614;1.456;2024-03-23T02:07:01;16.00;99.90
15656;DHT22;7928;43.614;1.456;2024-03-23T02:09:29;15.80;99.90
15656;DHT22;7928;43.614;1.456;2024-03-23T02:11:56;15.80;99.90
15656;DHT22;7928;43.614;1.456;2024-03-23T02:14:23;15.70;99.90
15656;DHT22;7928;43.614;1.456;2024-03-23T02:16:49;15.60;99.90
15656;DHT22;7928;43.614;1.456;2024-03-23T02:19:16;15.60;99.90
15656;DHT22;7928;43.614;1.456;2024-03-23T02:21:44;15.50;99.90
15656;DHT22;7928;43.614;1.456;2024-03-23T02:24:14;15.40;99.90
15656;DHT22;7928;43.614;1.456;2024-03-23T02:26:40;15.40;99.90
15656;DHT22;7928;43.614;1.456;2024-03-23T02:29:06;15.40;99.90
15656;DHT22;7928;43.614;1.456;2024-03-23T02:31:34;15.30;99.90
15656;DHT22;7928;43.614;1.456;2024-03-23T02:34:01;15.30;99.90
15656;DHT22;7928;43.614;1.456;2024-03-23T02:36:27;15.30;99.90
15656;DHT22;7928;43.614;1.456;2024-03-23T02:38:57;15.10;99.90
15656;DHT22;7928;43.614;1.456;2024-03-23T02:41:24;15.20;99.90
15656;DHT22;7928;43.614;1.456;2024-03-23T02:43:51;15.10;99.90
15656;DHT22;7928;43.614;1.456;2024-03-23T02:46:17;14.90;99.90
15656;DHT22;7928;43.614;1.456;2024-03-23T02:48:44;15.00;99.90
15656;DHT22;7928;43.614;1.456;2024-03-23T02:51:10;15.00;99.90
15656;DHT22;7928;43.614;1.456;2024-03-23T02:53:37;14.80;99.90
15656;DHT22;7928;43.614;1.456;2024-03-23T02:56:03;14.70;99.90
15656;DHT22;7928;43.614;1.456;2024-03-23T02:58:32;14.80;99.90
15656;DHT22;7928;43.614;1.456;2024-03-23T03:00:58;14.70;99.90
15656;DHT22;7928;43.614;1.456;2024-03-23T03:03:25;14.70;99.90
15656;DHT22;7928;43.614;1.456;2024-03-23T03:05:55;14.70;99.90
15656;DHT22;7928;43.614;1.456;2024-03-23T03:08:22;14.80;99.90
15656;DHT22;7928;43.614;1.456;2024-03-23T03:10:48;14.60;99.90
15656;DHT22;7928;43.614;1.456;2024-03-23T03:13:15;14.50;99.90
15656;DHT22;7928;43.614;1.456;2024-03-23T03:15:43;14.50;99.90
15656;DHT22;7928;43.614;1.456;2024-03-23T03:18:10;14.40;99.90
15656;DHT22;7928;43.614;1.456;2024-03-23T03:20:38;14.40;99.90
15656;DHT22;7928;43.614;1.456;2024-03-23T03:23:05;14.40;99.90
15656;DHT22;7928;43.614;1.456;2024-03-23T03:25:32;14.40;99.90
15656;DHT22;7928;43.614;1.456;2024-03-23T03:27:58;14.20;99.90
15656;DHT22;7928;43.614;1.456;2024-03-23T03:30:25;14.10;99.90
15656;DHT22;7928;43.614;1.456;2024-03-23T03:32:53;14.00;99.90
15656;DHT22;7928;43.614;1.456;2024-03-23T03:35:21;14.00;99.90
15656;DHT22;7928;43.614;1.456;2024-03-23T03:37:47;14.10;99.90
15656;DHT22;7928;43.614;1.456;2024-03-23T03:40:14;14.10;99.90
15656;DHT22;7928;43.614;1.456;2024-03-23T03:42:40;14.10;99.90
15656;DHT22;7928;43.614;1.456;2024-03-23T03:45:07;13.20;99.90
15656;DHT22;7928;43.614;1.456;2024-03-23T03:47:33;13.90;99.90
15656;DHT22;7928;43.614;1.456;2024-03-23T03:50:02;13.80;99.90
15656;DHT22;7928;43.614;1.456;2024-03-23T03:52:28;13.70;99.90
15656;DHT22;7928;43.614;1.456;2024-03-23T03:55:01;13.70;99.90
15656;DHT22;7928;43.614;1.456;2024-03-23T03:57:28;13.70;99.90
15656;DHT22;7928;43.614;1.456;2024-03-23T03:59:55;13.60;99.90
15656;DHT22;7928;43.614;1.456;2024-03-23T04:02:21;13.50;99.90
15656;DHT22;7928;43.614;1.456;2024-03-23T04:07:16;13.40;99.90
15656;DHT22;7928;43.614;1.456;2024-03-23T04:09:44;13.40;99.90
15656;DHT22;7928;43.614;1.456;2024-03-23T04:12:10;13.40;99.90
15656;DHT22;7928;43.614;1.456;2024-03-23T04:14:37;13.40;99.90
15656;DHT22;7928;43.614;1.456;2024-03-23T04:17:03;13.50;99.90
15656;DHT22;7928;43.614;1.456;2024-03-23T04:19:30;13.50;99.90
15656;DHT22;7928;43.614;1.456;2024-03-23T04:21:56;13.40;99.90
15656;DHT22;7928;43.614;1.456;2024-03-23T04:24:25;13.20;99.90
15656;DHT22;7928;43.614;1.456;2024-03-23T04:26:52;13.50;99.90
15656;DHT22;7928;43.614;1.456;2024-03-23T04:29:19;13.50;99.90
15656;DHT22;7928;43.614;1.456;2024-03-23T04:31:45;13.50;99.90
15656;DHT22;7928;43.614;1.456;2024-03-23T04:34:13;13.50;99.90
15656;DHT22;7928;43.614;1.456;2024-03-23T04:36:39;13.50;99.90
15656;DHT22;7928;43.614;1.456;2024-03-23T04:39:07;13.50;99.90
15656;DHT22;7928;43.614;1.456;2024-03-23T04:41:36;13.60;99.90
15656;DHT22;7928;43.614;1.456;2024-03-23T04:44:03;13.50;99.90
15656;DHT22;7928;43.614;1.456;2024-03-23T04:46:31;13.50;99.90
15656;DHT22;7928;43.614;1.456;2024-03-23T04:48:58;13.50;99.90
15656;DHT22;7928;43.614;1.456;2024-03-23T04:51:25;13.40;99.90
15656;DHT22;7928;43.614;1.456;2024-03-23T04:53:52;13.40;99.90
15656;DHT22;7928;43.614;1.456;2024-03-23T04:56:19;13.40;99.90
15656;DHT22;7928;43.614;1.456;2024-03-23T04:58:46;13.30;99.90
15656;DHT22;7928;43.614;1.456;2024-03-23T05:01:14;13.30;99.90
15656;DHT22;7928;43.614;1.456;2024-03-23T05:03:40;13.40;99.90
15656;DHT22;7928;43.614;1.456;2024-03-23T05:06:07;13.40;99.90
15656;DHT22;7928;43.614;1.456;2024-03-23T05:08:34;13.40;99.90
15656;DHT22;7928;43.614;1.456;2024-03-23T05:11:01;13.30;99.90
15656;DHT22;7928;43.614;1.456;2024-03-23T05:13:27;13.30;99.90
15656;DHT22;7928;43.614;1.456;2024-03-23T05:15:56;13.30;99.90
15656;DHT22;7928;43.614;1.456;2024-03-23T05:18:22;13.30;99.90
15656;DHT22;7928;43.614;1.456;2024-03-23T05:20:56;13.30;99.90
15656;DHT22;7928;43.614;1.456;2024-03-23T05:23:23;13.30;99.90
15656;DHT22;7928;43.614;1.456;2024-03-23T05:25:50;13.40;99.90
15656;DHT22;7928;43.614;1.456;2024-03-23T05:28:17;13.40;99.90
15656;DHT22;7928;43.614;1.456;2024-03-23T05:30:44;13.40;99.90
15656;DHT22;7928;43.614;1.456;2024-03-23T05:33:17;13.50;99.90
15656;DHT22;7928;43.614;1.456;2024-03-23T05:35:45;13.40;99.90
15656;DHT22;7928;43.614;1.456;2024-03-23T05:38:11;13.40;99.90
15656;DHT22;7928;43.614;1.456;2024-03-23T05:40:38;13.30;99.90
15656;DHT22;7928;43.614;1.456;2024-03-23T05:43:05;13.30;99.90
15656;DHT22;7928;43.614;1.456;2024-03-23T05:45:33;13.30;99.90
15656;DHT22;7928;43.614;1.456;2024-03-23T05:47:59;13.30;99.90
15656;DHT22;7928;43.614;1.456;2024-03-23T05:50:27;13.30;99.90
15656;DHT22;7928;43.614;1.456;2024-03-23T05:52:53;13.30;99.90
15656;DHT22;7928;43.614;1.456;2024-03-23T05:55:20;13.20;99.90
15656;DHT22;7928;43.614;1.456;2024-03-23T05:57:46;13.10;99.90
15656;DHT22;7928;43.614;1.456;2024-03-23T06:00:14;13.10;99.90
15656;DHT22;7928;43.614;1.456;2024-03-23T06:02:41;13.00;99.90
15656;DHT22;7928;43.614;1.456;2024-03-23T06:05:10;13.10;99.90
15656;DHT22;7928;43.614;1.456;2024-03-23T06:07:38;13.20;99.90
15656;DHT22;7928;43.614;1.456;2024-03-23T06:10:06;13.20;99.90
15656;DHT22;7928;43.614;1.456;2024-03-23T06:12:32;13.30;99.90
15656;DHT22;7928;43.614;1.456;2024-03-23T06:15:00;13.30;99.90
15656;DHT22;7928;43.614;1.456;2024-03-23T06:19:53;13.20;99.90
15656;DHT22;7928;43.614;1.456;2024-03-23T06:22:19;13.20;99.90
15656;DHT22;7928;43.614;1.456;2024-03-23T06:24:48;13.30;99.90
15656;DHT22;7928;43.614;1.456;2024-03-23T06:27:14;13.30;99.90
15656;DHT22;7928;43.614;1.456;2024-03-23T06:29:41;13.30;99.90
15656;DHT22;7928;43.614;1.456;2024-03-23T06:32:07;13.40;99.90
15656;DHT22;7928;43.614;1.456;2024-03-23T06:34:34;13.30;99.90
15656;DHT22;7928;43.614;1.456;2024-03-23T06:37:00;13.20;99.90
15656;DHT22;7928;43.614;1.456;2024-03-23T06:39:28;13.20;99.90
15656;DHT22;7928;43.614;1.456;2024-03-23T06:41:56;13.10;99.90
15656;DHT22;7928;43.614;1.456;2024-03-23T06:44:23;12.90;1.00
15656;DHT22;7928;43.614;1.456;2024-03-23T06:46:50;12.70;1.00
15656;DHT22;7928;43.614;1.456;2024-03-23T06:49:17;12.70;1.00
15656;DHT22;7928;43.614;1.456;2024-03-23T06:51:43;12.70;1.00
15656;DHT22;7928;43.614;1.456;2024-03-23T06:54:10;12.60;1.00
15656;DHT22;7928;43.614;1.456;2024-03-23T06:56:36;12.60;19.90
15656;DHT22;7928;43.614;1.456;2024-03-23T06:59:04;14.60;30.70
15656;DHT22;7928;43.614;1.456;2024-03-23T07:01:30;12.50;44.90
15656;DHT22;7928;43.614;1.456;2024-03-23T07:03:57;12.50;43.80
15656;DHT22;7928;43.614;1.456;2024-03-23T07:06:23;12.50;54.40
15656;DHT22;7928;43.614;1.456;2024-03-23T07:08:52;12.60;59.90
15656;DHT22;7928;43.614;1.456;2024-03-23T07:11:21;12.70;64.60
15656;DHT22;7928;43.614;1.456;2024-03-23T07:13:50;12.80;55.60
15656;DHT22;7928;43.614;1.456;2024-03-23T07:16:18;12.80;58.00
15656;DHT22;7928;43.614;1.456;2024-03-23T07:18:45;12.70;80.80
15656;DHT22;7928;43.614;1.456;2024-03-23T07:21:11;12.80;94.50
15656;DHT22;7928;43.614;1.456;2024-03-23T07:23:38;13.00;93.60
15656;DHT22;7928;43.614;1.456;2024-03-23T07:26:07;12.80;59.70
15656;DHT22;7928;43.614;1.456;2024-03-23T07:28:34;12.80;46.60
15656;DHT22;7928;43.614;1.456;2024-03-23T07:31:05;12.60;23.10
15656;DHT22;7928;43.614;1.456;2024-03-23T07:33:36;12.50;27.30
15656;DHT22;7928;43.614;1.456;2024-03-23T07:36:03;12.70;26.70
15656;DHT22;7928;43.614;1.456;2024-03-23T07:38:31;12.50;13.70
15656;DHT22;7928;43.614;1.456;2024-03-23T07:41:04;12.40;18.90
15656;DHT22;7928;43.614;1.456;2024-03-23T07:43:31;12.30;14.20
15656;DHT22;7928;43.614;1.456;2024-03-23T07:45:58;12.20;3.50
15656;DHT22;7928;43.614;1.456;2024-03-23T07:48:25;12.30;12.30
15656;DHT22;7928;43.614;1.456;2024-03-23T07:51:02;12.30;22.90
15656;DHT22;7928;43.614;1.456;2024-03-23T07:53:30;12.30;3.00
15656;DHT22;7928;43.614;1.456;2024-03-23T07:55:58;12.30;6.20
15656;DHT22;7928;43.614;1.456;2024-03-23T07:58:25;12.40;9.50
15656;DHT22;7928;43.614;1.456;2024-03-23T08:00:52;12.40;10.90
15656;DHT22;7928;43.614;1.456;2024-03-23T08:03:19;12.40;21.70
15656;DHT22;7928;43.614;1.456;2024-03-23T08:05:45;12.40;21.30
15656;DHT22;7928;43.614;1.456;2024-03-23T08:08:14;12.40;29.60
15656;DHT22;7928;43.614;1.456;2024-03-23T08:10:48;12.20;24.00
15656;DHT22;7928;43.614;1.456;2024-03-23T08:13:15;12.20;20.60
15656;DHT22;7928;43.614;1.456;2024-03-23T08:15:42;12.20;12.50
15656;DHT22;7928;43.614;1.456;2024-03-23T08:18:10;12.30;9.60
15656;DHT22;7928;43.614;1.456;2024-03-23T08:20:36;12.20;1.00
15656;DHT22;7928;43.614;1.456;2024-03-23T08:23:03;12.20;1.00
15656;DHT22;7928;43.614;1.456;2024-03-23T08:25:32;12.20;1.00
15656;DHT22;7928;43.614;1.456;2024-03-23T08:27:59;12.30;1.00
15656;DHT22;7928;43.614;1.456;2024-03-23T08:30:25;12.30;99.90
15656;DHT22;7928;43.614;1.456;2024-03-23T08:32:53;12.30;99.90
15656;DHT22;7928;43.614;1.456;2024-03-23T08:35:19;12.60;99.90
15656;DHT22;7928;43.614;1.456;2024-03-23T08:37:46;12.60;99.90
15656;DHT22;7928;43.614;1.456;2024-03-23T08:40:12;12.70;99.90
15656;DHT22;7928;43.614;1.456;2024-03-23T08:42:40;12.80;99.90
15656;DHT22;7928;43.614;1.456;2024-03-23T08:45:07;13.00;99.90
15656;DHT22;7928;43.614;1.456;2024-03-23T08:47:35;12.90;99.90
15656;DHT22;7928;43.614;1.456;2024-03-23T08:50:01;12.80;99.90
15656;DHT22;7928;43.614;1.456;2024-03-23T08:52:29;12.70;99.90
15656;DHT22;7928;43.614;1.456;2024-03-23T08:54:55;12.50;99.90
15656;DHT22;7928;43.614;1.456;2024-03-23T08:57:22;12.50;1.00
15656;DHT22;7928;43.614;1.456;2024-03-23T08:59:50;12.50;1.00
15656;DHT22;7928;43.614;1.456;2024-03-23T09:02:17;12.60;1.00
15656;DHT22;7928;43.614;1.456;2024-03-23T09:04:44;12.60;99.90
15656;DHT22;7928;43.614;1.456;2024-03-23T09:07:11;12.60;99.90
15656;DHT22;7928;43.614;1.456;2024-03-23T09:09:38;12.70;99.90
15656;DHT22;7928;43.614;1.456;2024-03-23T09:12:06;12.90;99.90
15656;DHT22;7928;43.614;1.456;2024-03-23T09:14:33;13.20;99.90
15656;DHT22;7928;43.614;1.456;2024-03-23T09:17:01;13.50;99.90
15656;DHT22;7928;43.614;1.456;2024-03-23T09:19:28;13.80;99.90
15656;DHT22;7928;43.614;1.456;2024-03-23T09:21:55;14.00;99.90
15656;DHT22;7928;43.614;1.456;2024-03-23T09:24:21;14.40;99.90
15656;DHT22;7928;43.614;1.456;2024-03-23T09:26:48;14.70;99.90
15656;DHT22;7928;43.614;1.456;2024-03-23T09:29:14;14.90;99.90
15656;DHT22;7928;43.614;1.456;2024-03-23T09:31:41;14.80;99.90
15656;DHT22;7928;43.614;1.456;2024-03-23T09:34:09;15.00;99.90
15656;DHT22;7928;43.614;1.456;2024-03-23T09:36:36;15.40;99.90
15656;DHT22;7928;43.614;1.456;2024-03-23T09:39:02;15.80;99.90
15656;DHT22;7928;43.614;1.456;2024-03-23T09:41:29;15.30;99.90
15656;DHT22;7928;43.614;1.456;2024-03-23T09:43:55;15.00;99.90
15656;DHT22;7928;43.614;1.456;2024-03-23T09:46:22;15.00;99.90
15656;DHT22;7928;43.614;1.456;2024-03-23T09:48:49;15.40;99.90
15656;DHT22;7928;43.614;1.456;2024-03-23T09:51:17;15.40;99.90
15656;DHT22;7928;43.614;1.456;2024-03-23T09:53:43;15.40;99.90
15656;DHT22;7928;43.614;1.456;2024-03-23T09:56:10;15.00;99.90
15656;DHT22;7928;43.614;1.456;2024-03-23T09:58:36;14.90;99.90
15656;DHT22;7928;43.614;1.456;2024-03-23T10:01:04;15.00;99.90
15656;DHT22;7928;43.614;1.456;2024-03-23T10:03:30;15.10;99.90
15656;DHT22;7928;43.614;1.456;2024-03-23T10:06:01;14.80;99.90
15656;DHT22;7928;43.614;1.456;2024-03-23T10:08:29;15.00;99.90
15656;DHT22;7928;43.614;1.456;2024-03-23T10:10:56;15.20;99.90
15656;DHT22;7928;43.614;1.456;2024-03-23T10:13:26;15.00;99.90
15656;DHT22;7928;43.614;1.456;2024-03-23T10:15:56;15.10;99.90
15656;DHT22;7928;43.614;1.456;2024-03-23T10:18:23;15.30;99.90
15656;DHT22;7928;43.614;1.456;2024-03-23T10:21:06;15.90;99.90
15656;DHT22;7928;43.614;1.456;2024-03-23T10:23:34;16.40;99.90
15656;DHT22;7928;43.614;1.456;2024-03-23T10:26:13;16.20;99.90
15656;DHT22;7928;43.614;1.456;2024-03-23T10:28:51;16.80;99.90
15656;DHT22;7928;43.614;1.456;2024-03-23T10:31:17;16.80;99.90
15656;DHT22;7928;43.614;1.456;2024-03-23T10:33:45;17.80;99.90
15656;DHT22;7928;43.614;1.456;2024-03-23T10:36:12;19.30;99.90
15656;DHT22;7928;43.614;1.456;2024-03-23T10:38:42;20.30;99.90
15656;DHT22;7928;43.614;1.456;2024-03-23T10:41:08;20.90;99.90
15656;DHT22;7928;43.614;1.456;2024-03-23T10:43:36;21.30;99.90
15656;DHT22;7928;43.614;1.456;2024-03-23T10:46:03;22.10;99.90
15656;DHT22;7928;43.614;1.456;2024-03-23T10:48:30;22.60;99.30
15656;DHT22;7928;43.614;1.456;2024-03-23T10:50:56;22.90;97.90
15656;DHT22;7928;43.614;1.456;2024-03-23T10:53:27;23.50;96.90
15656;DHT22;7928;43.614;1.456;2024-03-23T10:55:55;23.80;95.40
15656;DHT22;7928;43.614;1.456;2024-03-23T10:58:26;22.90;94.70
15656;DHT22;7928;43.614;1.456;2024-03-23T11:00:53;22.70;94.50
15656;DHT22;7928;43.614;1.456;2024-03-23T11:03:33;22.80;93.90
15656;DHT22;7928;43.614;1.456;2024-03-23T11:06:00;23.10;93.90
15656;DHT22;7928;43.614;1.456;2024-03-23T11:08:35;23.00;93.40
15656;DHT22;7928;43.614;1.456;2024-03-23T11:11:17;23.50;92.70
15656;DHT22;7928;43.614;1.456;2024-03-23T11:13:47;24.20;92.50
15656;DHT22;7928;43.614;1.456;2024-03-23T11:16:16;24.30;90.40
15656;DHT22;7928;43.614;1.456;2024-03-23T11:18:43;24.20;90.30
15656;DHT22;7928;43.614;1.456;2024-03-23T11:21:10;25.10;89.50
15656;DHT22;7928;43.614;1.456;2024-03-23T11:23:37;25.50;88.20
15656;DHT22;7928;43.614;1.456;2024-03-23T11:26:07;24.90;85.00
15656;DHT22;7928;43.614;1.456;2024-03-23T11:28:36;24.50;83.80
15656;DHT22;7928;43.614;1.456;2024-03-23T11:31:09;24.30;82.10
15656;DHT22;7928;43.614;1.456;2024-03-23T11:33:36;24.80;83.60
15656;DHT22;7928;43.614;1.456;2024-03-23T11:36:04;25.10;80.00
15656;DHT22;7928;43.614;1.456;2024-03-23T11:38:36;23.90;79.80
15656;DHT22;7928;43.614;1.456;2024-03-23T11:41:03;23.80;81.60
15656;DHT22;7928;43.614;1.456;2024-03-23T11:43:30;24.10;79.70
15656;DHT22;7928;43.614;1.456;2024-03-23T11:45:58;24.70;79.70
15656;DHT22;7928;43.614;1.456;2024-03-23T11:48:28;26.10;79.40
15656;DHT22;7928;43.614;1.456;2024-03-23T11:50:56;25.60;74.50
15656;DHT22;7928;43.614;1.456;2024-03-23T11:53:25;23.50;75.50
15656;DHT22;7928;43.614;1.456;2024-03-23T11:55:56;23.20;76.50
15656;DHT22;7928;43.614;1.456;2024-03-23T11:58:24;23.30;77.30
15656;DHT22;7928;43.614;1.456;2024-03-23T12:00:50;22.80;78.30
15656;DHT22;7928;43.614;1.456;2024-03-23T12:03:20;22.80;77.10
15656;DHT22;7928;43.614;1.456;2024-03-23T12:05:51;22.90;76.80
15656;DHT22;7928;43.614;1.456;2024-03-23T12:08:22;23.10;76.50
15656;DHT22;7928;43.614;1.456;2024-03-23T12:10:50;23.10;75.70
15656;DHT22;7928;43.614;1.456;2024-03-23T12:13:18;22.50;75.40
15656;DHT22;7928;43.614;1.456;2024-03-23T12:15:45;23.20;75.50
15656;DHT22;7928;43.614;1.456;2024-03-23T12:18:13;24.40;74.30
15656;DHT22;7928;43.614;1.456;2024-03-23T12:20:40;24.20;72.30
15656;DHT22;7928;43.614;1.456;2024-03-23T12:23:09;24.60;70.90
15656;DHT22;7928;43.614;1.456;2024-03-23T12:25:35;25.90;69.60
15656;DHT22;7928;43.614;1.456;2024-03-23T12:28:03;26.40;67.40
15656;DHT22;7928;43.614;1.456;2024-03-23T12:30:32;26.20;66.10
15656;DHT22;7928;43.614;1.456;2024-03-23T12:32:59;26.40;66.20
15656;DHT22;7928;43.614;1.456;2024-03-23T12:35:25;26.00;65.60
15656;DHT22;7928;43.614;1.456;2024-03-23T12:37:54;26.90;64.80
15656;DHT22;7928;43.614;1.456;2024-03-23T12:40:20;27.30;66.20
15656;DHT22;7928;43.614;1.456;2024-03-23T12:42:46;27.80;65.40
15656;DHT22;7928;43.614;1.456;2024-03-23T12:45:13;27.60;63.90
15656;DHT22;7928;43.614;1.456;2024-03-23T12:47:40;27.60;62.60
15656;DHT22;7928;43.614;1.456;2024-03-23T12:50:06;27.60;62.20
15656;DHT22;7928;43.614;1.456;2024-03-23T12:52:33;28.20;62.10
15656;DHT22;7928;43.614;1.456;2024-03-23T12:55:01;27.80;60.20
15656;DHT22;7928;43.614;1.456;2024-03-23T12:57:29;26.70;62.80
15656;DHT22;7928;43.614;1.456;2024-03-23T12:59:55;27.40;61.50
15656;DHT22;7928;43.614;1.456;2024-03-23T13:02:22;27.10;62.30
15656;DHT22;7928;43.614;1.456;2024-03-23T13:04:50;27.60;61.20
15656;DHT22;7928;43.614;1.456;2024-03-23T13:07:17;27.90;62.50
15656;DHT22;7928;43.614;1.456;2024-03-23T13:09:44;28.70;62.70
15656;DHT22;7928;43.614;1.456;2024-03-23T13:12:12;28.30;60.00
15656;DHT22;7928;43.614;1.456;2024-03-23T13:14:38;28.50;60.60
15656;DHT22;7928;43.614;1.456;2024-03-23T13:17:06;27.70;61.20
15656;DHT22;7928;43.614;1.456;2024-03-23T13:19:32;27.90;61.30
15656;DHT22;7928;43.614;1.456;2024-03-23T13:22:00;28.40;59.50
15656;DHT22;7928;43.614;1.456;2024-03-23T13:24:26;27.70;60.60
15656;DHT22;7928;43.614;1.456;2024-03-23T13:26:54;27.70;60.20
15656;DHT22;7928;43.614;1.456;2024-03-23T13:29:23;28.30;60.80
15656;DHT22;7928;43.614;1.456;2024-03-23T13:31:51;28.70;62.00
15656;DHT22;7928;43.614;1.456;2024-03-23T13:34:18;28.30;59.00
15656;DHT22;7928;43.614;1.456;2024-03-23T13:36:45;26.90;60.30
15656;DHT22;7928;43.614;1.456;2024-03-23T13:39:12;28.00;61.90
15656;DHT22;7928;43.614;1.456;2024-03-23T13:41:40;28.60;59.80
15656;DHT22;7928;43.614;1.456;2024-03-23T13:44:07;29.20;59.50
15656;DHT22;7928;43.614;1.456;2024-03-23T13:46:37;28.30;58.70
15656;DHT22;7928;43.614;1.456;2024-03-23T13:49:04;27.00;59.80
15656;DHT22;7928;43.614;1.456;2024-03-23T13:51:32;27.60;60.10
15656;DHT22;7928;43.614;1.456;2024-03-23T13:53:58;28.20;59.30
15656;DHT22;7928;43.614;1.456;2024-03-23T13:56:27;28.30;59.60
15656;DHT22;7928;43.614;1.456;2024-03-23T13:58:54;28.30;59.60
15656;DHT22;7928;43.614;1.456;2024-03-23T14:01:21;28.70;59.70
15656;DHT22;7928;43.614;1.456;2024-03-23T14:03:49;27.80;59.60
15656;DHT22;7928;43.614;1.456;2024-03-23T14:06:16;27.40;59.50
15656;DHT22;7928;43.614;1.456;2024-03-23T14:08:42;27.80;59.70
15656;DHT22;7928;43.614;1.456;2024-03-23T14:11:10;27.90;59.90
15656;DHT22;7928;43.614;1.456;2024-03-23T14:13:36;27.90;59.60
15656;DHT22;7928;43.614;1.456;2024-03-23T14:16:04;28.10;59.80
15656;DHT22;7928;43.614;1.456;2024-03-23T14:18:30;28.10;59.80
15656;DHT22;7928;43.614;1.456;2024-03-23T14:21:00;28.40;59.80
15656;DHT22;7928;43.614;1.456;2024-03-23T14:23:26;28.90;59.90
15656;DHT22;7928;43.614;1.456;2024-03-23T14:25:54;28.50;59.50
15656;DHT22;7928;43.614;1.456;2024-03-23T14:28:21;28.10;59.90
15656;DHT22;7928;43.614;1.456;2024-03-23T14:30:48;28.20;60.50
15656;DHT22;7928;43.614;1.456;2024-03-23T14:33:15;28.50;59.00
15656;DHT22;7928;43.614;1.456;2024-03-23T14:35:42;28.30;59.40
15656;DHT22;7928;43.614;1.456;2024-03-23T14:38:11;27.20;59.30
15656;DHT22;7928;43.614;1.456;2024-03-23T14:40:38;27.10;61.40
15656;DHT22;7928;43.614;1.456;2024-03-23T14:43:04;28.40;61.20
15656;DHT22;7928;43.614;1.456;2024-03-23T14:45:31;29.00;59.00
15656;DHT22;7928;43.614;1.456;2024-03-23T14:47:57;29.10;59.20
15656;DHT22;7928;43.614;1.456;2024-03-23T14:50:24;29.10;59.20
15656;DHT22;7928;43.614;1.456;2024-03-23T14:52:50;28.70;58.70
15656;DHT22;7928;43.614;1.456;2024-03-23T14:55:19;28.30;58.90
15656;DHT22;7928;43.614;1.456;2024-03-23T14:57:45;28.50;58.50
15656;DHT22;7928;43.614;1.456;2024-03-23T15:00:12;28.00;59.30
15656;DHT22;7928;43.614;1.456;2024-03-23T15:02:39;28.70;60.60
15656;DHT22;7928;43.614;1.456;2024-03-23T15:05:07;29.30;60.10
15656;DHT22;7928;43.614;1.456;2024-03-23T15:07:35;29.80;58.20
15656;DHT22;7928;43.614;1.456;2024-03-23T15:10:03;29.90;58.30
15656;DHT22;7928;43.614;1.456;2024-03-23T15:12:31;30.10;58.10
15656;DHT22;7928;43.614;1.456;2024-03-23T15:15:00;29.80;57.60
15656;DHT22;7928;43.614;1.456;2024-03-23T15:17:26;29.70;57.30
15656;DHT22;7928;43.614;1.456;2024-03-23T15:19:53;29.60;58.40
15656;DHT22;7928;43.614;1.456;2024-03-23T15:22:19;29.70;58.20
15656;DHT22;7928;43.614;1.456;2024-03-23T15:24:47;29.50;58.10
15656;DHT22;7928;43.614;1.456;2024-03-23T15:27:13;29.50;58.40
15656;DHT22;7928;43.614;1.456;2024-03-23T15:29:41;29.30;57.10
15656;DHT22;7928;43.614;1.456;2024-03-23T15:32:11;29.00;58.10
15656;DHT22;7928;43.614;1.456;2024-03-23T15:34:39;28.40;57.20
15656;DHT22;7928;43.614;1.456;2024-03-23T15:37:05;28.10;58.20
15656;DHT22;7928;43.614;1.456;2024-03-23T15:39:32;27.90;58.20
15656;DHT22;7928;43.614;1.456;2024-03-23T15:41:58;27.60;57.70
15656;DHT22;7928;43.614;1.456;2024-03-23T15:44:25;28.00;57.60
15656;DHT22;7928;43.614;1.456;2024-03-23T15:46:53;27.10;58.30
15656;DHT22;7928;43.614;1.456;2024-03-23T15:49:20;26.70;58.10
15656;DHT22;7928;43.614;1.456;2024-03-23T15:51:46;25.90;58.60
15656;DHT22;7928;43.614;1.456;2024-03-23T15:54:13;26.20;58.50
15656;DHT22;7928;43.614;1.456;2024-03-23T15:56:39;25.50;58.60
15656;DHT22;7928;43.614;1.456;2024-03-23T15:59:06;26.20;59.50
15656;DHT22;7928;43.614;1.456;2024-03-23T16:01:32;26.50;59.60
15656;DHT22;7928;43.614;1.456;2024-03-23T16:04:02;26.40;59.10
15656;DHT22;7928;43.614;1.456;2024-03-23T16:06:27;26.50;59.60
15656;DHT22;7928;43.614;1.456;2024-03-23T16:08:54;26.80;59.60
15656;DHT22;7928;43.614;1.456;2024-03-23T16:11:20;26.70;58.50
15656;DHT22;7928;43.614;1.456;2024-03-23T16:13:48;25.80;59.30
15656;DHT22;7928;43.614;1.456;2024-03-23T16:16:14;25.30;59.60
15656;DHT22;7928;43.614;1.456;2024-03-23T16:18:41;24.80;60.50
15656;DHT22;7928;43.614;1.456;2024-03-23T16:21:10;24.60;61.20
15656;DHT22;7928;43.614;1.456;2024-03-23T16:23:37;24.90;61.70
15656;DHT22;7928;43.614;1.456;2024-03-23T16:26:04;25.10;61.20
15656;DHT22;7928;43.614;1.456;2024-03-23T16:28:32;25.20;60.20
15656;DHT22;7928;43.614;1.456;2024-03-23T16:30:59;24.90;60.50
15656;DHT22;7928;43.614;1.456;2024-03-23T16:33:27;24.80;60.80
15656;DHT22;7928;43.614;1.456;2024-03-23T16:35:58;24.80;61.10
15656;DHT22;7928;43.614;1.456;2024-03-23T16:38:27;24.70;60.80
15656;DHT22;7928;43.614;1.456;2024-03-23T16:40:58;24.50;60.10
15656;DHT22;7928;43.614;1.456;2024-03-23T16:43:26;24.30;59.70
15656;DHT22;7928;43.614;1.456;2024-03-23T16:45:56;23.90;60.40